createdAt,value
2022-12-27T00:04:34.927Z,78.97
2022-12-27T00:09:37.883Z,78.81
2022-12-27T00:14:40.900Z,78.97
2022-12-27T00:19:43.914Z,79.35
2022-12-27T00:24:48.001Z,79.98
2022-12-27T00:29:50.980Z,79.95
2022-12-27T00:34:53.941Z,79.87
2022-12-27T00:39:56.883Z,79.75
2022-12-27T00:44:59.815Z,79.93
2022-12-27T00:50:02.890Z,79.98
2022-12-27T00:55:06.316Z,80.10
2022-12-27T01:00:11.013Z,80.09
2022-12-27T01:05:14.197Z,80.21
2022-12-27T01:10:17.193Z,80.33
2022-12-27T01:15:20.214Z,80.42
2022-12-27T01:20:23.312Z,80.31
2022-12-27T01:25:26.262Z,80.30
2022-12-27T01:30:29.280Z,80.42
2022-12-27T01:35:32.252Z,80.70
2022-12-27T01:40:37.154Z,80.84
2022-12-27T01:45:40.192Z,80.91
2022-12-27T01:50:58.939Z,80.96
2022-12-27T01:56:30.759Z,81.28
2022-12-27T02:01:40.230Z,81.25
2022-12-27T02:06:43.883Z,81.27
2022-12-27T02:11:53.244Z,81.45
2022-12-27T02:17:01.168Z,81.41
2022-12-27T02:23:12.440Z,81.59
2022-12-27T02:28:33.174Z,81.50
2022-12-27T02:33:44.476Z,81.58
2022-12-27T02:38:53.623Z,81.67
2022-12-27T02:44:16.518Z,81.49
2022-12-27T02:49:53.568Z,81.41
2022-12-27T02:55:12.608Z,81.65
2022-12-27T03:00:38.928Z,81.92
2022-12-27T03:06:41.285Z,82.23
2022-12-27T03:12:09.884Z,82.23
2022-12-27T03:17:27.068Z,82.36
2022-12-27T03:22:51.593Z,82.50
2022-12-27T03:28:38.945Z,82.08
2022-12-27T03:33:43.362Z,81.71
2022-12-27T03:39:37.476Z,81.77
2022-12-27T03:44:40.624Z,81.72
2022-12-27T03:49:56.406Z,81.44
2022-12-27T03:55:00.384Z,81.10
2022-12-27T04:00:05.756Z,80.97
2022-12-27T04:05:09.241Z,81.18
2022-12-27T04:10:31.633Z,80.58
2022-12-27T04:15:53.487Z,80.31
2022-12-27T04:21:15.019Z,80.13
2022-12-27T04:26:36.499Z,79.93
2022-12-27T04:31:58.139Z,79.97
2022-12-27T04:37:01.145Z,79.89
2022-12-27T04:42:23.067Z,79.94
2022-12-27T04:47:45.111Z,79.90
2022-12-27T05:08:49.057Z,76.02
2022-12-27T05:14:01.103Z,74.40
2022-12-27T05:19:06.486Z,74.54
2022-12-27T05:24:28.398Z,75.54
2022-12-27T05:29:36.000Z,76.20
2022-12-27T05:34:39.030Z,75.79
2022-12-27T05:39:42.219Z,75.91
2022-12-27T05:44:45.331Z,75.67
2022-12-27T05:49:48.319Z,75.63
2022-12-27T05:54:51.227Z,75.83
2022-12-27T05:59:54.180Z,75.74
2022-12-27T06:04:57.122Z,76.17
2022-12-27T06:10:00.783Z,76.13
2022-12-27T06:15:06.929Z,76.08
2022-12-27T06:20:10.992Z,76.24
2022-12-27T06:25:15.653Z,75.58
2022-12-27T06:30:18.714Z,75.77
2022-12-27T06:35:21.663Z,75.63
2022-12-27T06:40:24.602Z,75.21
2022-12-27T06:45:27.597Z,75.54
2022-12-27T06:50:30.735Z,75.58
2022-12-27T06:55:34.822Z,75.20
2022-12-27T07:00:37.850Z,75.36
2022-12-27T07:05:41.905Z,75.35
2022-12-27T07:10:44.831Z,75.30
2022-12-27T07:15:47.805Z,74.93
2022-12-27T07:20:50.797Z,75.07
2022-12-27T07:25:53.697Z,75.00
2022-12-27T07:30:56.710Z,75.14
2022-12-27T07:36:01.657Z,74.99
2022-12-27T07:41:04.884Z,74.63
2022-12-27T07:46:27.042Z,74.87
2022-12-27T07:51:30.082Z,74.73
2022-12-27T07:56:33.032Z,74.61
2022-12-27T08:01:54.908Z,74.37
2022-12-27T08:07:12.776Z,74.34
2022-12-27T08:12:16.691Z,74.08
2022-12-27T08:17:22.733Z,74.35
2022-12-27T08:22:28.489Z,74.06
2022-12-27T08:27:31.434Z,73.85
2022-12-27T08:32:34.651Z,74.08
2022-12-27T08:37:37.606Z,74.16
2022-12-27T08:42:40.551Z,74.17
2022-12-27T08:47:43.529Z,74.14
2022-12-27T08:52:46.473Z,73.88
2022-12-27T08:57:49.441Z,74.02
2022-12-27T09:02:53.476Z,74.05
2022-12-27T09:07:58.874Z,74.00
2022-12-27T09:13:01.839Z,74.13
2022-12-27T09:18:06.161Z,73.81
2022-12-27T09:23:09.188Z,73.68
2022-12-27T09:28:13.544Z,73.85
2022-12-27T09:33:16.525Z,74.11
2022-12-27T09:38:19.521Z,73.92
2022-12-27T09:43:46.847Z,73.59
2022-12-27T09:48:51.658Z,73.31
2022-12-27T09:54:33.226Z,73.78
2022-12-27T09:59:44.554Z,73.83
2022-12-27T10:05:18.659Z,73.51
2022-12-27T10:10:31.530Z,73.51
2022-12-27T10:15:57.664Z,73.41
2022-12-27T10:21:15.631Z,73.11
2022-12-27T10:26:20.329Z,72.94
2022-12-27T10:31:24.853Z,73.09
2022-12-27T10:36:31.685Z,73.02
2022-12-27T10:42:32.557Z,72.80
2022-12-27T10:47:35.648Z,72.73
2022-12-27T10:52:38.929Z,72.96
2022-12-27T10:57:42.646Z,72.42
2022-12-27T11:02:58.293Z,72.06
2022-12-27T11:08:24.446Z,71.62
2022-12-27T11:13:27.403Z,72.16
2022-12-27T11:18:34.398Z,71.57
2022-12-27T11:23:45.121Z,70.83
2022-12-27T11:28:54.846Z,70.74
2022-12-27T11:34:13.344Z,70.76
2022-12-27T11:39:53.318Z,70.09
2022-12-27T11:45:18.909Z,69.28
2022-12-27T11:50:28.241Z,69.05
2022-12-27T11:55:52.985Z,68.99
2022-12-27T12:01:17.398Z,68.38
2022-12-27T12:07:01.251Z,67.92
2022-12-27T12:12:35.313Z,68.01
2022-12-27T12:17:57.026Z,67.42
2022-12-27T12:23:28.142Z,68.34
2022-12-27T12:29:05.364Z,68.37
2022-12-27T12:34:33.105Z,68.07
2022-12-27T12:40:11.906Z,67.48
2022-12-27T12:45:42.544Z,67.90
2022-12-27T12:51:03.460Z,68.09
2022-12-27T12:56:44.202Z,67.70
2022-12-27T13:02:24.315Z,67.53
2022-12-27T13:07:51.941Z,67.46
2022-12-27T13:13:19.213Z,67.97
2022-12-27T13:19:07.348Z,68.24
2022-12-27T13:24:45.648Z,68.16
2022-12-27T13:30:07.263Z,67.53
2022-12-27T13:35:41.813Z,67.61
2022-12-27T13:41:32.734Z,67.23
2022-12-27T13:47:09.347Z,67.40
2022-12-27T13:52:36.344Z,68.01
2022-12-27T13:58:08.101Z,68.09
2022-12-27T14:03:45.589Z,68.16
2022-12-27T14:09:29.254Z,68.08
2022-12-27T14:14:37.776Z,68.29
2022-12-27T14:20:13.533Z,68.75
2022-12-27T14:25:46.642Z,68.61
2022-12-27T14:31:17.049Z,68.65
2022-12-27T14:37:17.594Z,68.73
2022-12-27T14:42:59.889Z,69.08
2022-12-27T14:48:47.050Z,68.97
2022-12-27T14:53:59.290Z,68.76
2022-12-27T14:59:43.722Z,68.79
2022-12-27T15:05:43.771Z,68.94
2022-12-27T15:11:05.329Z,69.23
2022-12-27T15:16:26.646Z,69.38
2022-12-27T15:21:50.683Z,68.88
2022-12-27T15:27:00.957Z,69.03
2022-12-27T15:32:21.197Z,69.32
2022-12-27T15:38:16.979Z,69.36
2022-12-27T15:43:33.785Z,68.90
2022-12-27T15:49:14.092Z,68.82
2022-12-27T15:54:28.897Z,69.06
2022-12-27T15:59:34.607Z,68.92
2022-12-27T16:04:56.970Z,68.95
2022-12-27T16:10:00.411Z,68.99
2022-12-27T16:15:55.701Z,69.07
2022-12-27T16:21:23.064Z,69.25
2022-12-27T16:26:30.900Z,69.60
2022-12-27T16:31:41.885Z,69.96
2022-12-27T16:36:49.975Z,70.37
2022-12-27T16:41:58.766Z,70.83
2022-12-27T16:47:32.723Z,70.80
2022-12-27T16:53:32.761Z,70.37
2022-12-27T16:58:38.911Z,70.42
2022-12-27T17:03:45.659Z,70.29
2022-12-27T17:09:10.663Z,70.28
2022-12-27T17:14:34.719Z,70.37
2022-12-27T17:19:45.703Z,70.61
2022-12-27T17:24:49.371Z,70.41
2022-12-27T17:30:12.142Z,70.12
2022-12-27T17:35:29.276Z,69.78
2022-12-27T17:41:02.542Z,70.13
2022-12-27T17:46:51.657Z,70.60
2022-12-27T17:52:14.523Z,70.54
2022-12-27T17:57:38.404Z,70.74
2022-12-27T18:02:41.584Z,70.95
2022-12-27T18:07:45.206Z,71.43
2022-12-27T18:13:07.053Z,71.29
2022-12-27T18:18:18.216Z,71.30
2022-12-27T18:23:21.200Z,71.43
2022-12-27T18:28:34.322Z,71.79
2022-12-27T18:33:55.208Z,71.76
2022-12-27T18:39:34.060Z,71.58
2022-12-27T18:44:51.055Z,71.85
2022-12-27T18:50:01.489Z,72.06
2022-12-27T18:55:26.859Z,72.12
2022-12-27T19:00:30.796Z,71.74
2022-12-27T19:05:36.450Z,71.85
2022-12-27T19:10:48.088Z,71.78
2022-12-27T19:15:52.331Z,71.84
2022-12-27T19:21:01.981Z,71.47
2022-12-27T19:26:15.716Z,71.41
2022-12-27T19:31:22.159Z,71.41
2022-12-27T19:36:32.659Z,71.54
2022-12-27T19:41:38.323Z,71.42
2022-12-27T19:46:41.294Z,71.40
2022-12-27T19:51:44.411Z,71.54
2022-12-27T19:56:47.816Z,71.96
2022-12-27T20:01:51.046Z,71.83
2022-12-27T20:06:54.706Z,71.61
2022-12-27T20:11:57.714Z,71.79
2022-12-27T20:17:00.658Z,71.84
2022-12-27T20:22:05.359Z,71.71
2022-12-27T20:27:08.306Z,71.74
2022-12-27T20:32:11.281Z,72.03
2022-12-27T20:37:15.253Z,72.05
2022-12-27T20:42:20.591Z,71.87
2022-12-27T20:47:24.776Z,72.00
2022-12-27T20:52:31.138Z,71.91
2022-12-27T20:57:35.360Z,72.17
2022-12-27T21:02:42.545Z,72.08
2022-12-27T21:07:46.063Z,71.91
2022-12-27T21:12:49.018Z,71.77
2022-12-27T21:17:51.975Z,71.82
2022-12-27T21:22:54.946Z,71.93
2022-12-27T21:27:57.865Z,71.61
2022-12-27T21:33:00.909Z,71.44
2022-12-27T21:38:03.838Z,70.99
2022-12-27T21:43:06.792Z,70.83
2022-12-27T21:48:09.715Z,71.18
2022-12-27T21:53:19.137Z,71.42
2022-12-27T21:58:22.071Z,71.30
2022-12-27T22:03:25.188Z,71.16
2022-12-27T22:08:31.027Z,71.07
2022-12-27T22:13:34.427Z,71.25
2022-12-27T22:18:41.608Z,71.37
2022-12-27T22:23:47.758Z,71.15
2022-12-27T22:28:51.602Z,71.08
2022-12-27T22:33:54.404Z,71.28
2022-12-27T22:39:00.826Z,71.36
2022-12-27T22:44:11.756Z,71.57
2022-12-27T22:49:15.468Z,71.47
2022-12-27T22:54:18.446Z,71.53
2022-12-27T22:59:21.651Z,71.37
2022-12-27T23:04:26.115Z,71.60
2022-12-27T23:09:29.405Z,71.61
2022-12-27T23:14:32.416Z,71.38
2022-12-27T23:19:35.405Z,71.57
2022-12-27T23:24:38.385Z,71.56
2022-12-27T23:29:41.333Z,71.79
2022-12-27T23:34:44.294Z,71.99
2022-12-27T23:39:47.230Z,71.79
2022-12-27T23:44:50.763Z,71.89
2022-12-27T23:49:53.716Z,71.82
2022-12-27T23:54:56.992Z,72.13
2022-12-27T23:59:59.947Z,72.11
